KHB103 UIII-VTBS
Flight info
| Callsign | KHB103 |
|---|---|
| Flight time | N/A |
| Altitude | 34100 |
| Route | ULTUK5C ULTUK G909 LETBI B480 MORIT B330 UBKER G212 SGM A581 SAGAG/N0450F341 B218 LPB B346 NOBER NORTA1C |
| Aircraft | A320/M-SDE3FGHIRWY/LB1 |
Departure
| Time | N/A |
|---|---|
| Airport | Irkutsk International Airport (UIII) |
Arrival
| Time | 2026-05-07 09:22 |
|---|---|
| Airport | Suvarnabhumi Airport (VTBS) |
| Time | Latitude | Longitude | Altitude | Speed | Heading |
|---|---|---|---|---|---|
| 2026-05-07 08:06 | 22.01359 | 101.27028 | 34003 ft | 480 kts | 162° |
| 2026-05-07 08:06 | 21.95202 | 101.29681 | 34004 ft | 480 kts | 162° |
| 2026-05-07 08:07 | 21.88998 | 101.32350 | 34005 ft | 480 kts | 162° |
| 2026-05-07 08:07 | 21.82792 | 101.35020 | 33999 ft | 480 kts | 162° |
| 2026-05-07 08:08 | 21.76595 | 101.37692 | 34005 ft | 480 kts | 162° |
| 2026-05-07 08:08 | 21.70393 | 101.40360 | 33878 ft | 479 kts | 162° |
| 2026-05-07 08:09 | 21.64208 | 101.43024 | 33914 ft | 480 kts | 162° |
| 2026-05-07 08:09 | 21.58006 | 101.45692 | 33911 ft | 480 kts | 162° |
| 2026-05-07 08:10 | 21.51798 | 101.48356 | 33915 ft | 480 kts | 162° |
| 2026-05-07 08:10 | 21.45601 | 101.51017 | 33917 ft | 480 kts | 162° |
| 2026-05-07 08:11 | 21.39386 | 101.53677 | 33919 ft | 480 kts | 162° |
| 2026-05-07 08:11 | 21.33178 | 101.56334 | 33915 ft | 480 kts | 162° |
| 2026-05-07 08:12 | 21.26973 | 101.58992 | 33915 ft | 480 kts | 162° |
| 2026-05-07 08:12 | 21.20769 | 101.61644 | 33915 ft | 480 kts | 162° |
| 2026-05-07 08:13 | 21.14565 | 101.64306 | 33920 ft | 480 kts | 161° |
| 2026-05-07 08:13 | 21.08375 | 101.66987 | 33913 ft | 480 kts | 161° |
| 2026-05-07 08:14 | 21.02169 | 101.69670 | 33911 ft | 480 kts | 161° |
| 2026-05-07 08:14 | 20.96226 | 101.72232 | 33906 ft | 480 kts | 161° |
| 2026-05-07 08:15 | 20.90029 | 101.74904 | 33898 ft | 480 kts | 161° |
| 2026-05-07 08:15 | 20.83839 | 101.77566 | 33886 ft | 480 kts | 161° |
| 2026-05-07 08:16 | 20.77641 | 101.80226 | 33882 ft | 479 kts | 161° |
| 2026-05-07 08:16 | 20.71456 | 101.82883 | 33874 ft | 479 kts | 161° |
| 2026-05-07 08:17 | 20.65267 | 101.85537 | 33870 ft | 479 kts | 161° |
| 2026-05-07 08:17 | 20.59073 | 101.88191 | 33872 ft | 479 kts | 161° |
| 2026-05-07 08:18 | 20.52885 | 101.90839 | 33867 ft | 479 kts | 161° |
| 2026-05-07 08:18 | 20.46704 | 101.93490 | 33855 ft | 479 kts | 161° |
| 2026-05-07 08:19 | 20.40525 | 101.96142 | 33853 ft | 479 kts | 161° |
| 2026-05-07 08:19 | 20.34342 | 101.98783 | 33837 ft | 479 kts | 161° |
| 2026-05-07 08:20 | 20.28156 | 102.01413 | 33830 ft | 479 kts | 161° |
| 2026-05-07 08:20 | 20.21965 | 102.04047 | 33814 ft | 479 kts | 160° |
| 2026-05-07 08:21 | 20.15775 | 102.06690 | 33795 ft | 479 kts | 160° |
| 2026-05-07 08:21 | 20.09585 | 102.09332 | 33784 ft | 479 kts | 160° |
| 2026-05-07 08:22 | 20.03393 | 102.11965 | 33776 ft | 479 kts | 160° |
| 2026-05-07 08:22 | 19.97197 | 102.14585 | 33771 ft | 479 kts | 162° |
| 2026-05-07 08:23 | 19.90737 | 102.15975 | 33771 ft | 472 kts | 181° |
| 2026-05-07 08:23 | 19.84305 | 102.15118 | 33770 ft | 465 kts | 199° |
| 2026-05-07 08:24 | 19.78092 | 102.13200 | 33767 ft | 465 kts | 199° |
| 2026-05-07 08:24 | 19.71869 | 102.11297 | 33776 ft | 466 kts | 199° |
| 2026-05-07 08:25 | 19.65642 | 102.09392 | 33783 ft | 466 kts | 199° |
| 2026-05-07 08:25 | 19.59410 | 102.07488 | 33791 ft | 466 kts | 199° |
| 2026-05-07 08:26 | 19.50099 | 102.04653 | 33804 ft | 466 kts | 198° |
| 2026-05-07 08:26 | 19.43859 | 102.02753 | 33810 ft | 466 kts | 198° |
| 2026-05-07 08:27 | 19.37626 | 102.00848 | 33808 ft | 467 kts | 198° |
| 2026-05-07 08:27 | 19.31375 | 101.98944 | 33809 ft | 467 kts | 198° |
| 2026-05-07 08:28 | 19.25123 | 101.97040 | 33808 ft | 467 kts | 198° |
| 2026-05-07 08:28 | 19.18859 | 101.95132 | 33809 ft | 469 kts | 198° |
| 2026-05-07 08:29 | 19.12594 | 101.93231 | 33796 ft | 468 kts | 198° |
| 2026-05-07 08:29 | 19.06342 | 101.91333 | 33798 ft | 468 kts | 198° |
| 2026-05-07 08:30 | 19.00077 | 101.89441 | 33795 ft | 468 kts | 198° |
| 2026-05-07 08:30 | 18.93818 | 101.87549 | 33794 ft | 468 kts | 198° |
| 2026-05-07 08:31 | 18.87548 | 101.85646 | 33790 ft | 468 kts | 198° |
| 2026-05-07 08:31 | 18.81287 | 101.83748 | 33787 ft | 468 kts | 198° |
| 2026-05-07 08:32 | 18.75028 | 101.81859 | 33788 ft | 468 kts | 198° |
| 2026-05-07 08:32 | 18.68760 | 101.79964 | 33787 ft | 468 kts | 198° |
| 2026-05-07 08:33 | 18.62537 | 101.78083 | 33788 ft | 468 kts | 198° |
| 2026-05-07 08:33 | 18.56231 | 101.76180 | 33787 ft | 469 kts | 198° |
| 2026-05-07 08:34 | 18.49958 | 101.74292 | 33787 ft | 469 kts | 198° |
| 2026-05-07 08:34 | 18.43727 | 101.72418 | 33790 ft | 469 kts | 198° |
| 2026-05-07 08:35 | 18.37448 | 101.70525 | 33789 ft | 469 kts | 198° |
| 2026-05-07 08:35 | 18.31168 | 101.68633 | 33788 ft | 469 kts | 198° |
| 2026-05-07 08:36 | 18.24892 | 101.66747 | 33790 ft | 469 kts | 198° |
| 2026-05-07 08:36 | 18.18611 | 101.64866 | 33794 ft | 469 kts | 198° |
| 2026-05-07 08:37 | 18.12329 | 101.62981 | 33792 ft | 469 kts | 198° |
| 2026-05-07 08:37 | 18.06044 | 101.61091 | 33790 ft | 470 kts | 198° |
| 2026-05-07 08:38 | 17.99757 | 101.59210 | 33800 ft | 470 kts | 198° |
| 2026-05-07 08:38 | 17.93466 | 101.57326 | 33801 ft | 470 kts | 198° |
| 2026-05-07 08:39 | 17.87167 | 101.55439 | 33805 ft | 470 kts | 198° |
| 2026-05-07 08:39 | 17.80864 | 101.53564 | 33813 ft | 471 kts | 198° |
| 2026-05-07 08:40 | 17.74561 | 101.51681 | 33818 ft | 471 kts | 198° |
| 2026-05-07 08:40 | 17.68265 | 101.49797 | 33828 ft | 471 kts | 198° |
| 2026-05-07 08:41 | 17.61963 | 101.47893 | 33831 ft | 471 kts | 198° |
| 2026-05-07 08:41 | 17.56729 | 101.46311 | 33840 ft | 471 kts | 198° |
| 2026-05-07 08:42 | 17.49360 | 101.44101 | 33847 ft | 471 kts | 198° |
| 2026-05-07 08:42 | 17.43069 | 101.42213 | 33853 ft | 470 kts | 198° |
| 2026-05-07 08:43 | 17.36782 | 101.40323 | 33856 ft | 470 kts | 197° |
| 2026-05-07 08:43 | 17.30538 | 101.38448 | 33862 ft | 470 kts | 197° |
| 2026-05-07 08:44 | 17.25270 | 101.36870 | 33858 ft | 470 kts | 197° |
| 2026-05-07 08:44 | 17.17965 | 101.34691 | 33850 ft | 470 kts | 197° |
| 2026-05-07 08:45 | 17.12697 | 101.33123 | 33839 ft | 470 kts | 197° |
| 2026-05-07 08:45 | 17.06442 | 101.31260 | 33832 ft | 470 kts | 197° |
| 2026-05-07 08:46 | 16.99084 | 101.29057 | 33817 ft | 471 kts | 197° |
| 2026-05-07 08:46 | 16.93812 | 101.27478 | 33805 ft | 471 kts | 197° |
| 2026-05-07 08:47 | 16.86474 | 101.25293 | 33800 ft | 472 kts | 197° |
| 2026-05-07 08:47 | 16.81229 | 101.23728 | 33795 ft | 472 kts | 197° |
| 2026-05-07 08:48 | 16.74922 | 101.21845 | 33802 ft | 472 kts | 197° |
| 2026-05-07 08:48 | 16.68605 | 101.19962 | 33803 ft | 472 kts | 197° |
| 2026-05-07 08:49 | 16.62355 | 101.17870 | 33800 ft | 471 kts | 201° |
| 2026-05-07 08:49 | 16.56222 | 101.15452 | 33798 ft | 471 kts | 202° |
| 2026-05-07 08:50 | 16.50098 | 101.13003 | 33799 ft | 472 kts | 201° |
| 2026-05-07 08:50 | 16.43941 | 101.10636 | 33790 ft | 471 kts | 201° |
| 2026-05-07 08:51 | 16.37766 | 101.08317 | 33784 ft | 471 kts | 201° |
| 2026-05-07 08:51 | 16.31596 | 101.05996 | 33772 ft | 471 kts | 201° |
| 2026-05-07 08:52 | 16.25433 | 101.03671 | 33771 ft | 471 kts | 201° |
| 2026-05-07 08:52 | 16.19258 | 101.01336 | 33770 ft | 471 kts | 201° |
| 2026-05-07 08:53 | 16.13105 | 100.99003 | 33762 ft | 471 kts | 201° |
| 2026-05-07 08:53 | 16.06933 | 100.96669 | 33761 ft | 471 kts | 201° |
| 2026-05-07 08:54 | 16.00770 | 100.94341 | 33757 ft | 471 kts | 201° |
| 2026-05-07 08:54 | 15.94605 | 100.92011 | 33759 ft | 471 kts | 201° |
| 2026-05-07 08:55 | 15.88441 | 100.89686 | 33758 ft | 471 kts | 201° |
| 2026-05-07 08:55 | 15.82281 | 100.87369 | 33758 ft | 471 kts | 200° |
| 2026-05-07 08:56 | 15.76111 | 100.85044 | 33756 ft | 471 kts | 201° |
| 2026-05-07 08:56 | 15.69942 | 100.82715 | 33760 ft | 471 kts | 200° |
| 2026-05-07 08:57 | 15.63772 | 100.80401 | 33764 ft | 471 kts | 200° |
| 2026-05-07 08:57 | 15.57605 | 100.78079 | 33763 ft | 471 kts | 200° |
| 2026-05-07 08:58 | 15.51441 | 100.75765 | 33765 ft | 471 kts | 200° |
| 2026-05-07 08:58 | 15.45284 | 100.73453 | 33765 ft | 471 kts | 200° |
| 2026-05-07 08:59 | 15.39125 | 100.71132 | 33773 ft | 471 kts | 200° |
| 2026-05-07 08:59 | 15.36037 | 100.69971 | 33174 ft | 473 kts | 200° |
| 2026-05-07 08:59 | 15.32930 | 100.68810 | 31920 ft | 475 kts | 200° |
| 2026-05-07 09:00 | 15.29816 | 100.67673 | 30807 ft | 475 kts | 197° |
| 2026-05-07 09:00 | 15.26590 | 100.66896 | 29756 ft | 480 kts | 188° |
| 2026-05-07 09:00 | 15.23241 | 100.66598 | 28459 ft | 485 kts | 182° |
| 2026-05-07 09:00 | 15.19861 | 100.66429 | 27220 ft | 488 kts | 182° |
| 2026-05-07 09:01 | 15.16470 | 100.66254 | 26401 ft | 483 kts | 182° |
| 2026-05-07 09:01 | 15.13152 | 100.66078 | 25629 ft | 477 kts | 182° |
| 2026-05-07 09:01 | 15.09843 | 100.65899 | 24839 ft | 472 kts | 182° |
| 2026-05-07 09:01 | 15.06573 | 100.65721 | 24058 ft | 468 kts | 182° |
| 2026-05-07 09:02 | 15.03333 | 100.65545 | 23297 ft | 465 kts | 181° |
| 2026-05-07 09:02 | 15.00116 | 100.65375 | 22481 ft | 460 kts | 181° |
| 2026-05-07 09:02 | 14.96943 | 100.65208 | 21775 ft | 454 kts | 181° |
| 2026-05-07 09:02 | 14.93809 | 100.65044 | 21084 ft | 449 kts | 181° |
| 2026-05-07 09:03 | 14.90708 | 100.64884 | 20441 ft | 443 kts | 181° |
| 2026-05-07 09:03 | 14.87649 | 100.64725 | 19811 ft | 438 kts | 181° |
| 2026-05-07 09:03 | 14.84616 | 100.64565 | 19204 ft | 434 kts | 182° |
| 2026-05-07 09:03 | 14.81616 | 100.64406 | 18623 ft | 429 kts | 182° |
| 2026-05-07 09:04 | 14.78653 | 100.64250 | 18110 ft | 424 kts | 182° |
| 2026-05-07 09:04 | 14.75760 | 100.64100 | 17975 ft | 409 kts | 182° |
| 2026-05-07 09:04 | 14.72970 | 100.64008 | 17846 ft | 393 kts | 176° |
| 2026-05-07 09:04 | 14.70312 | 100.64390 | 17631 ft | 380 kts | 165° |
| 2026-05-07 09:05 | 14.67801 | 100.65151 | 17222 ft | 374 kts | 162° |
| 2026-05-07 09:05 | 14.65323 | 100.65921 | 16877 ft | 370 kts | 162° |
| 2026-05-07 09:05 | 14.62866 | 100.66681 | 16546 ft | 367 kts | 162° |
| 2026-05-07 09:05 | 14.60422 | 100.67435 | 16213 ft | 365 kts | 162° |
| 2026-05-07 09:06 | 14.57994 | 100.68179 | 15885 ft | 363 kts | 162° |
| 2026-05-07 09:06 | 14.55603 | 100.68913 | 15716 ft | 352 kts | 162° |
| 2026-05-07 09:06 | 14.53309 | 100.69617 | 15512 ft | 335 kts | 162° |
| 2026-05-07 09:06 | 14.51107 | 100.70296 | 14997 ft | 326 kts | 162° |
| 2026-05-07 09:07 | 14.48970 | 100.70954 | 14631 ft | 324 kts | 162° |
| 2026-05-07 09:07 | 14.46796 | 100.71614 | 14362 ft | 320 kts | 164° |
| 2026-05-07 09:07 | 14.44629 | 100.71922 | 14078 ft | 319 kts | 179° |
| 2026-05-07 09:07 | 14.42431 | 100.71672 | 13793 ft | 318 kts | 192° |
| 2026-05-07 09:08 | 14.40291 | 100.71101 | 13498 ft | 317 kts | 193° |
| 2026-05-07 09:08 | 14.38158 | 100.70531 | 13187 ft | 316 kts | 193° |
| 2026-05-07 09:08 | 14.36034 | 100.69973 | 12909 ft | 315 kts | 193° |
| 2026-05-07 09:08 | 14.33917 | 100.69419 | 12641 ft | 313 kts | 193° |
| 2026-05-07 09:09 | 14.31809 | 100.68867 | 12399 ft | 312 kts | 193° |
| 2026-05-07 09:09 | 14.29705 | 100.68313 | 12239 ft | 312 kts | 193° |
| 2026-05-07 09:09 | 14.27602 | 100.67760 | 11976 ft | 311 kts | 193° |
| 2026-05-07 09:09 | 14.25511 | 100.67208 | 11697 ft | 309 kts | 193° |
| 2026-05-07 09:10 | 14.23429 | 100.66660 | 11411 ft | 308 kts | 193° |
| 2026-05-07 09:10 | 14.21329 | 100.66110 | 11125 ft | 307 kts | 193° |
| 2026-05-07 09:10 | 14.19260 | 100.65567 | 10845 ft | 306 kts | 193° |
| 2026-05-07 09:10 | 14.17205 | 100.65027 | 10564 ft | 305 kts | 193° |
| 2026-05-07 09:11 | 14.15153 | 100.64485 | 10282 ft | 304 kts | 193° |
| 2026-05-07 09:11 | 14.13845 | 100.64141 | 10096 ft | 303 kts | 193° |
| 2026-05-07 09:11 | 14.11808 | 100.63607 | 9825 ft | 302 kts | 193° |
| 2026-05-07 09:11 | 14.09786 | 100.63073 | 9595 ft | 297 kts | 193° |
| 2026-05-07 09:12 | 14.07847 | 100.62559 | 9450 ft | 286 kts | 193° |
| 2026-05-07 09:12 | 14.05958 | 100.62059 | 9338 ft | 275 kts | 193° |
| 2026-05-07 09:12 | 14.04137 | 100.61577 | 9168 ft | 267 kts | 193° |
| 2026-05-07 09:12 | 14.02345 | 100.61133 | 9110 ft | 263 kts | 186° |
| 2026-05-07 09:13 | 14.00560 | 100.61313 | 9033 ft | 258 kts | 156° |
| 2026-05-07 09:13 | 13.99129 | 100.62369 | 8833 ft | 254 kts | 126° |
| 2026-05-07 09:13 | 13.98396 | 100.63981 | 8531 ft | 249 kts | 103° |
| 2026-05-07 09:13 | 13.97959 | 100.65710 | 8257 ft | 252 kts | 103° |
| 2026-05-07 09:14 | 13.97507 | 100.67475 | 7944 ft | 256 kts | 104° |
| 2026-05-07 09:14 | 13.97059 | 100.69212 | 7562 ft | 256 kts | 104° |
| 2026-05-07 09:14 | 13.96599 | 100.70997 | 6968 ft | 264 kts | 104° |
| 2026-05-07 09:14 | 13.96119 | 100.72862 | 6361 ft | 270 kts | 104° |
| 2026-05-07 09:15 | 13.95637 | 100.74725 | 5747 ft | 268 kts | 104° |
| 2026-05-07 09:15 | 13.95158 | 100.76583 | 5040 ft | 268 kts | 105° |
| 2026-05-07 09:15 | 13.94446 | 100.78350 | 4389 ft | 267 kts | 114° |
| 2026-05-07 09:15 | 13.93611 | 100.80046 | 3693 ft | 264 kts | 128° |
| 2026-05-07 09:16 | 13.92213 | 100.81218 | 3157 ft | 258 kts | 157° |
| 2026-05-07 09:16 | 13.90504 | 100.81586 | 3013 ft | 246 kts | 181° |
| 2026-05-07 09:16 | 13.88882 | 100.81292 | 2996 ft | 229 kts | 194° |
| 2026-05-07 09:16 | 13.87386 | 100.80897 | 2994 ft | 218 kts | 194° |
| 2026-05-07 09:17 | 13.85960 | 100.80521 | 3013 ft | 203 kts | 194° |
| 2026-05-07 09:17 | 13.84653 | 100.80176 | 3013 ft | 184 kts | 194° |
| 2026-05-07 09:17 | 13.83470 | 100.79865 | 2868 ft | 171 kts | 194° |
| 2026-05-07 09:17 | 13.82359 | 100.79572 | 2603 ft | 158 kts | 194° |
| 2026-05-07 09:18 | 13.81343 | 100.79305 | 2389 ft | 145 kts | 193° |
| 2026-05-07 09:18 | 13.80391 | 100.79055 | 2207 ft | 139 kts | 193° |
| 2026-05-07 09:18 | 13.79459 | 100.78810 | 2031 ft | 136 kts | 194° |
| 2026-05-07 09:18 | 13.78555 | 100.78572 | 1851 ft | 136 kts | 193° |
| 2026-05-07 09:19 | 13.77644 | 100.78332 | 1681 ft | 135 kts | 194° |
| 2026-05-07 09:19 | 13.76733 | 100.78093 | 1527 ft | 135 kts | 193° |
| 2026-05-07 09:19 | 13.75834 | 100.77856 | 1352 ft | 132 kts | 194° |
| 2026-05-07 09:19 | 13.74942 | 100.77621 | 1176 ft | 132 kts | 195° |
| 2026-05-07 09:20 | 13.74157 | 100.77414 | 1024 ft | 132 kts | 194° |
| 2026-05-07 09:20 | 13.73271 | 100.77182 | 874 ft | 132 kts | 193° |
| 2026-05-07 09:20 | 13.72383 | 100.76948 | 700 ft | 132 kts | 195° |
| 2026-05-07 09:20 | 13.71499 | 100.76716 | 524 ft | 130 kts | 193° |
| 2026-05-07 09:21 | 13.70622 | 100.76486 | 358 ft | 131 kts | 191° |
| 2026-05-07 09:21 | 13.69727 | 100.76251 | 181 ft | 135 kts | 190° |
| 2026-05-07 09:21 | 13.68823 | 100.76013 | 18 ft | 131 kts | 193° |
| 2026-05-07 09:21 | 13.68152 | 100.75839 | 13 ft | 69 kts | 191° |
| 2026-05-07 09:22 | 13.67764 | 100.75743 | 13 ft | 48 kts | 194° |
| 2026-05-07 09:22 | 13.67557 | 100.75639 | 13 ft | 17 kts | 217° |
| 2026-05-07 09:22 | 13.67484 | 100.75578 | 13 ft | 2 kts | 223° |
| 2026-05-07 09:22 | 13.67478 | 100.75573 | 13 ft | 0 kts | 223° |
| 2026-05-07 09:26 | 13.67475 | 100.75570 | 13 ft | 3 kts | 223° |
| 2026-05-07 09:26 | 13.67450 | 100.75540 | 15 ft | 7 kts | 245° |
| 2026-05-07 09:26 | 13.67453 | 100.75496 | 14 ft | 6 kts | 299° |
| 2026-05-07 09:27 | 13.67485 | 100.75478 | 13 ft | 5 kts | 348° |
| 2026-05-07 09:27 | 13.67534 | 100.75482 | 13 ft | 10 kts | 12° |
| 2026-05-07 09:27 | 13.67614 | 100.75429 | 13 ft | 8 kts | 317° |
| 2026-05-07 09:28 | 13.67661 | 100.75419 | 13 ft | 7 kts | 5° |
| 2026-05-07 09:28 | 13.67720 | 100.75431 | 13 ft | 6 kts | 14° |
| 2026-05-07 09:28 | 13.67760 | 100.75441 | 13 ft | 6 kts | 14° |
| 2026-05-07 09:28 | 13.67785 | 100.75447 | 13 ft | 5 kts | 14° |
| 2026-05-07 09:29 | 13.67820 | 100.75456 | 13 ft | 5 kts | 14° |
| 2026-05-07 09:29 | 13.67851 | 100.75464 | 13 ft | 4 kts | 15° |
| 2026-05-07 09:29 | 13.67884 | 100.75473 | 13 ft | 5 kts | 15° |
| 2026-05-07 09:29 | 13.67923 | 100.75485 | 14 ft | 4 kts | 15° |
| 2026-05-07 09:30 | 13.67957 | 100.75493 | 13 ft | 0 kts | 13° |
| 2026-05-07 09:30 | 13.67959 | 100.75494 | 13 ft | 3 kts | 13° |
| 2026-05-07 09:30 | 13.68037 | 100.75514 | 13 ft | 30 kts | 14° |
| 2026-05-07 09:30 | 13.68251 | 100.75571 | 13 ft | 24 kts | 15° |
| 2026-05-07 09:31 | 13.68363 | 100.75599 | 15 ft | 25 kts | 14° |
| 2026-05-07 09:31 | 13.68538 | 100.75646 | 13 ft | 27 kts | 14° |
| 2026-05-07 09:31 | 13.68774 | 100.75707 | 13 ft | 23 kts | 14° |
| 2026-05-07 09:31 | 13.68881 | 100.75736 | 13 ft | 24 kts | 15° |
| 2026-05-07 09:32 | 13.69037 | 100.75777 | 13 ft | 22 kts | 15° |
| 2026-05-07 09:32 | 13.69134 | 100.75743 | 13 ft | 9 kts | 296° |
| 2026-05-07 09:32 | 13.69150 | 100.75683 | 13 ft | 8 kts | 285° |
| 2026-05-07 09:32 | 13.69155 | 100.75632 | 13 ft | 7 kts | 239° |
| 2026-05-07 09:33 | 13.69118 | 100.75619 | 13 ft | 5 kts | 193° |
| 2026-05-07 09:33 | 13.69085 | 100.75611 | 13 ft | 4 kts | 195° |
| 2026-05-07 09:33 | 13.69079 | 100.75609 | 13 ft | 1 kts | 193° |
| 2026-05-07 09:33 | 13.69078 | 100.75609 | 13 ft | 0 kts | 193° |